Time;durP1;ratioP1;P1;durP2;ratioP2;P2;SDS_P1;SDS_P2;PMS_P1;PMS_P2;Temp;Humidity;BMP_temperature;BMP_pressure;BME280_temperature;BME280_humidity;BME280_pressure;Samples;Min_cycle;Max_cycle;Signal;HPM_P1;HPM_P2
2023/05/11 00:00:32;;;;;;;;;;;;;;;;;;5070638;28;1157;-68
2023/05/11 00:02:57;;;;;;;;;;;;;;;;;;5070383;28;1261;-68
2023/05/11 00:05:22;;;;;;;;;;;;;;;;;;5070356;28;848;-68
2023/05/11 00:07:48;;;;;;;;;;;;;;;;;;5055258;28;901;-68
2023/05/11 00:10:13;;;;;;;;;;;;;;;;;;5053923;28;1194;-68
2023/05/11 00:12:38;;;;;;;;;;;;;;;;;;5070649;28;884;-68
2023/05/11 00:15:04;;;;;;;;;;;;;;;;;;5071015;28;1967;-69
2023/05/11 00:17:29;;;;;;;;;;;;;;;;;;5070763;28;884;-68
2023/05/11 00:19:55;;;;;;;;;;;;;;;;;;5055138;28;1066;-68
2023/05/11 00:22:20;;;;;;;;;;;;;;;;;;5070590;28;828;-68
2023/05/11 00:24:45;;;;;;;;;;;;;;;;;;5070528;28;817;-68
2023/05/11 00:27:11;;;;;;;;;;;;;;;;;;5055425;28;801;-68
2023/05/11 00:29:36;;;;;;;;;;;;;;;;;;5070253;28;1280;-68
2023/05/11 00:32:01;;;;;;;;;;;;;;;;;;5055208;28;931;-68
2023/05/11 00:34:27;;;;;;;;;;;;;;;;;;5054828;28;813;-67
2023/05/11 00:36:52;;;;;;;;;;;;;;;;;;5086932;28;1918;-67
2023/05/11 00:39:17;;;;;;;;;;;;;;;;;;5070023;28;1486;-67
2023/05/11 00:41:43;;;;;;;;;;;;;;;;;;5054377;28;805;-67
2023/05/11 00:44:08;;;;;;;;;;;;;;;;;;5054723;28;908;-68
2023/05/11 00:46:33;;;;;;;;;;;;;;;;;;5053032;28;1292;-68
2023/05/11 00:48:59;;;;;;;;;;;;;;;;;;5054366;28;905;-68
2023/05/11 00:51:25;;;;;;;;;;;;;;;;;;5054525;28;880;-68
2023/05/11 00:53:50;;;;;;;;;;;;;;;;;;5054349;28;847;-68
2023/05/11 00:56:15;;;;;;;;;;;;;;;;;;5069739;28;1918;-67
2023/05/11 00:58:41;;;;;;;;;;;;;;;;;;5069683;28;872;-68
2023/05/11 01:01:06;;;;;;;;;;;;;;;;;;5087150;28;1281;-68
2023/05/11 01:03:32;;;;;;;;;;;;;;;;;;5070178;28;1202;-68
2023/05/11 01:06:10;;;;;;;;;;;;;;;;;;5069845;28;1353;-68
2023/05/11 01:08:41;;;;;;;;;;;;;;;;;;5053895;28;892;-68
2023/05/11 01:11:13;;;;;;;;;;;;;;;;;;5054112;28;1030;-68
2023/05/11 01:13:41;;;;;;;;;;;;;;;;;;5053535;28;904;-68
2023/05/11 01:16:36;;;;;;;;;;;;;;;;;;5053939;28;1918;-68
2023/05/11 01:19:07;;;;;;;;;;;;;;;;;;5057672;28;1265;-68
2023/05/11 01:21:33;;;;;;;;;;;;;;;;;;5053783;28;1338;-68
2023/05/11 01:24:05;;;;;;;;;;;;;;;;;;5069873;28;1253;-68
2023/05/11 01:26:36;;;;;;;;;;;;;;;;;;5053556;28;883;-68
2023/05/11 01:29:20;;;;;;;;;;;;;;;;;;5086229;28;1379;-67
2023/05/11 01:31:46;;;;;;;;;;;;;;;;;;5053656;28;908;-68
2023/05/11 01:34:21;;;;;;;;;;;;;;;;;;5054171;28;869;-67
2023/05/11 01:36:54;;;;;;;;;;;;;;;;;;5053566;28;1902;-68
2023/05/11 01:39:23;;;;;;;;;;;;;;;;;;5053609;28;971;-67
2023/05/11 01:41:50;;;;;;;;;;;;;;;;;;5069074;28;1347;-67
2023/05/11 01:44:18;;;;;;;;;;;;;;;;;;5069396;28;1443;-67
2023/05/11 01:46:44;;;;;;;;;;;;;;;;;;5053786;28;891;-67
2023/05/11 01:49:11;;;;;;;;;;;;;;;;;;5069374;28;1269;-67
2023/05/11 01:51:37;;;;;;;;;;;;;;;;;;5053415;28;1092;-67
2023/05/11 01:54:05;;;;;;;;;;;;;;;;;;5069197;28;1205;-68
2023/05/11 01:56:32;;;;;;;;;;;;;;;;;;5085720;28;1967;-68
2023/05/11 01:58:58;;;;;;;;;;;;;;;;;;5069634;28;861;-68
2023/05/11 02:01:25;;;;;;;;;;;;;;;;;;5056118;28;974;-68
2023/05/11 02:03:51;;;;;;;;;;;;;;;;;;5055610;28;825;-68
2023/05/11 02:06:18;;;;;;;;;;;;;;;;;;5087505;28;1525;-69
2023/05/11 02:08:43;;;;;;;;;;;;;;;;;;5054301;28;848;-67
2023/05/11 02:11:10;;;;;;;;;;;;;;;;;;5086228;28;1332;-68
2023/05/11 02:13:36;;;;;;;;;;;;;;;;;;5054616;28;856;-68
2023/05/11 02:16:02;;;;;;;;;;;;;;;;;;5055195;28;1972;-68
2023/05/11 02:18:28;;;;;;;;;;;;;;;;;;5055303;28;825;-68
2023/05/11 02:20:55;;;;;;;;;;;;;;;;;;5055351;28;1165;-68
2023/05/11 02:23:21;;;;;;;;;;;;;;;;;;5054316;28;904;-68
2023/05/11 02:25:47;;;;;;;;;;;;;;;;;;5069248;28;1221;-68
2023/05/11 02:28:12;;;;;;;;;;;;;;;;;;5055121;28;1136;-68
2023/05/11 02:30:40;;;;;;;;;;;;;;;;;;5056148;28;825;-67
2023/05/11 02:33:07;;;;;;;;;;;;;;;;;;5088916;28;1284;-67
2023/05/11 02:35:36;;;;;;;;;;;;;;;;;;5072982;28;1969;-67
2023/05/11 02:38:03;;;;;;;;;;;;;;;;;;5057562;28;817;-68
2023/05/11 02:40:29;;;;;;;;;;;;;;;;;;5056102;28;837;-68
2023/05/11 02:42:57;;;;;;;;;;;;;;;;;;5056502;28;967;-67
2023/05/11 02:45:24;;;;;;;;;;;;;;;;;;5054888;28;881;-68
2023/05/11 02:47:53;;;;;;;;;;;;;;;;;;5051888;28;908;-68
2023/05/11 02:50:20;;;;;;;;;;;;;;;;;;5067772;28;1304;-68
2023/05/11 02:52:46;;;;;;;;;;;;;;;;;;5084348;28;1162;-68
2023/05/11 02:55:13;;;;;;;;;;;;;;;;;;5084662;28;1967;-68
2023/05/11 02:57:39;;;;;;;;;;;;;;;;;;5084777;28;1166;-68
2023/05/11 03:00:04;;;;;;;;;;;;;;;;;;5068056;28;970;-67
2023/05/11 03:02:29;;;;;;;;;;;;;;;;;;5051955;28;888;-68
2023/05/11 03:04:55;;;;;;;;;;;;;;;;;;5067573;28;1499;-67
2023/05/11 03:07:20;;;;;;;;;;;;;;;;;;5053134;28;888;-68
2023/05/11 03:09:46;;;;;;;;;;;;;;;;;;5052582;28;825;-68
2023/05/11 03:12:12;;;;;;;;;;;;;;;;;;5084844;28;1233;-68
2023/05/11 03:14:37;;;;;;;;;;;;;;;;;;5052561;28;916;-67
2023/05/11 03:17:03;;;;;;;;;;;;;;;;;;5052387;28;1903;-68
2023/05/11 03:19:29;;;;;;;;;;;;;;;;;;5052631;28;1222;-67
2023/05/11 03:21:57;;;;;;;;;;;;;;;;;;5051721;28;1763;-68
2023/05/11 03:24:23;;;;;;;;;;;;;;;;;;5052312;28;1082;-68
2023/05/11 03:26:49;;;;;;;;;;;;;;;;;;5052053;28;971;-67
2023/05/11 03:29:15;;;;;;;;;;;;;;;;;;5052781;28;841;-67
2023/05/11 03:31:41;;;;;;;;;;;;;;;;;;5052523;28;952;-68
2023/05/11 03:34:06;;;;;;;;;;;;;;;;;;5067490;28;1158;-67
2023/05/11 03:36:32;;;;;;;;;;;;;;;;;;5051998;28;1983;-67
2023/05/11 03:38:57;;;;;;;;;;;;;;;;;;5070833;28;1091;-67
2023/05/11 03:41:25;;;;;;;;;;;;;;;;;;5056159;28;849;-67
2023/05/11 03:43:51;;;;;;;;;;;;;;;;;;5055833;28;829;-68
2023/05/11 03:46:19;;;;;;;;;;;;;;;;;;5055271;28;845;-68
2023/05/11 03:48:44;;;;;;;;;;;;;;;;;;5055501;28;845;-68
2023/05/11 03:51:10;;;;;;;;;;;;;;;;;;5055388;28;841;-67
2023/05/11 03:53:36;;;;;;;;;;;;;;;;;;5054947;28;900;-67
2023/05/11 03:56:02;;;;;;;;;;;;;;;;;;5087310;28;1967;-68
2023/05/11 03:58:29;;;;;;;;;;;;;;;;;;5070234;28;1315;-68
2023/05/11 04:00:54;;;;;;;;;;;;;;;;;;5054701;28;922;-67
2023/05/11 04:03:19;;;;;;;;;;;;;;;;;;5070353;28;1451;-67
2023/05/11 04:05:45;;;;;;;;;;;;;;;;;;5070088;28;1237;-68
2023/05/11 04:08:11;;;;;;;;;;;;;;;;;;5070184;28;832;-68
2023/05/11 04:10:37;;;;;;;;;;;;;;;;;;5054779;28;852;-68
2023/05/11 04:13:02;;;;;;;;;;;;;;;;;;5070346;28;806;-67
2023/05/11 04:15:28;;;;;;;;;;;;;;;;;;5054576;28;1910;-67
2023/05/11 04:17:54;;;;;;;;;;;;;;;;;;5070285;28;947;-68
2023/05/11 04:20:19;;;;;;;;;;;;;;;;;;5086667;28;1281;-67
2023/05/11 04:22:44;;;;;;;;;;;;;;;;;;5055024;28;599;-68
2023/05/11 04:25:10;;;;;;;;;;;;;;;;;;5054881;28;1019;-67
2023/05/11 04:27:35;;;;;;;;;;;;;;;;;;5054518;28;816;-67
2023/05/11 04:30:00;;;;;;;;;;;;;;;;;;5054474;28;904;-67
2023/05/11 04:32:27;;;;;;;;;;;;;;;;;;5053217;28;1083;-69
2023/05/11 04:34:52;;;;;;;;;;;;;;;;;;5055255;28;848;-69
2023/05/11 04:37:17;;;;;;;;;;;;;;;;;;5070291;28;1957;-69
2023/05/11 04:39:42;;;;;;;;;;;;;;;;;;5069789;28;1171;-69
2023/05/11 04:42:08;;;;;;;;;;;;;;;;;;5054084;28;899;-69
2023/05/11 04:44:33;;;;;;;;;;;;;;;;;;5054570;28;908;-68
2023/05/11 04:46:58;;;;;;;;;;;;;;;;;;5054695;28;850;-67
2023/05/11 04:49:23;;;;;;;;;;;;;;;;;;5053833;28;931;-68
2023/05/11 04:51:49;;;;;;;;;;;;;;;;;;5053990;28;883;-69
2023/05/11 04:54:14;;;;;;;;;;;;;;;;;;5054262;28;864;-69
2023/05/11 04:56:40;;;;;;;;;;;;;;;;;;5069319;28;1950;-70
2023/05/11 04:59:05;;;;;;;;;;;;;;;;;;5054006;28;903;-69
2023/05/11 05:01:31;;;;;;;;;;;;;;;;;;5069282;28;939;-69
2023/05/11 05:03:56;;;;;;;;;;;;;;;;;;5053733;28;899;-67
2023/05/11 05:06:21;;;;;;;;;;;;;;;;;;5069519;28;975;-69
2023/05/11 05:08:46;;;;;;;;;;;;;;;;;;5069503;28;1308;-69
2023/05/11 05:11:12;;;;;;;;;;;;;;;;;;5069067;28;876;-69
2023/05/11 05:13:37;;;;;;;;;;;;;;;;;;5053747;28;904;-69
2023/05/11 05:16:02;;;;;;;;;;;;;;;;;;5069062;28;1964;-67
2023/05/11 05:18:28;;;;;;;;;;;;;;;;;;5085672;28;1269;-69
2023/05/11 05:20:53;;;;;;;;;;;;;;;;;;5068514;28;1410;-69
2023/05/11 05:23:18;;;;;;;;;;;;;;;;;;5053317;28;943;-67
2023/05/11 05:25:43;;;;;;;;;;;;;;;;;;5053704;28;906;-67
2023/05/11 05:28:09;;;;;;;;;;;;;;;;;;5069081;28;1256;-67
2023/05/11 05:30:35;;;;;;;;;;;;;;;;;;5053163;28;856;-67
2023/05/11 05:33:01;;;;;;;;;;;;;;;;;;5053103;28;893;-67
2023/05/11 05:35:26;;;;;;;;;;;;;;;;;;5068791;28;1914;-68
2023/05/11 05:37:51;;;;;;;;;;;;;;;;;;5053292;28;932;-68
2023/05/11 05:40:16;;;;;;;;;;;;;;;;;;5068420;28;893;-68
2023/05/11 05:42:42;;;;;;;;;;;;;;;;;;5068541;28;1070;-68
2023/05/11 05:45:07;;;;;;;;;;;;;;;;;;5052882;28;880;-68
2023/05/11 05:47:33;;;;;;;;;;;;;;;;;;5067971;28;1209;-68
2023/05/11 05:49:58;;;;;;;;;;;;;;;;;;5068462;28;884;-69
2023/05/11 05:52:23;;;;;;;;;;;;;;;;;;5085474;28;1233;-68
2023/05/11 05:54:49;;;;;;;;;;;;;;;;;;5052903;28;887;-68
2023/05/11 05:57:14;;;;;;;;;;;;;;;;;;5053334;28;1950;-68
2023/05/11 05:59:39;;;;;;;;;;;;;;;;;;5052959;28;892;-69
2023/05/11 06:02:08;;;;;;;;;;;;;;;;;;5068127;28;1249;-69
2023/05/11 06:04:33;;;;;;;;;;;;;;;;;;5085654;28;1234;-69
2023/05/11 06:06:59;;;;;;;;;;;;;;;;;;5052071;28;1278;-69
2023/05/11 06:09:25;;;;;;;;;;;;;;;;;;5084837;28;1343;-69
2023/05/11 06:11:52;;;;;;;;;;;;;;;;;;5053219;28;878;-69
2023/05/11 06:14:18;;;;;;;;;;;;;;;;;;5052779;28;937;-68
2023/05/11 06:16:43;;;;;;;;;;;;;;;;;;5052995;28;1910;-69
2023/05/11 06:19:08;;;;;;;;;;;;;;;;;;5067957;28;833;-68
2023/05/11 06:21:34;;;;;;;;;;;;;;;;;;5067521;28;1314;-68
2023/05/11 06:23:59;;;;;;;;;;;;;;;;;;5067698;28;1328;-68
2023/05/11 06:26:25;;;;;;;;;;;;;;;;;;5052257;28;837;-68
2023/05/11 06:28:51;;;;;;;;;;;;;;;;;;5051874;28;841;-68
2023/05/11 06:31:17;;;;;;;;;;;;;;;;;;5084749;28;1311;-69
2023/05/11 06:33:42;;;;;;;;;;;;;;;;;;5067785;28;1241;-68
2023/05/11 06:36:08;;;;;;;;;;;;;;;;;;5052288;28;1969;-69
2023/05/11 06:38:33;;;;;;;;;;;;;;;;;;5051852;28;971;-68
2023/05/11 06:40:58;;;;;;;;;;;;;;;;;;5052067;28;975;-68
2023/05/11 06:43:23;;;;;;;;;;;;;;;;;;5067374;28;916;-68
2023/05/11 06:45:49;;;;;;;;;;;;;;;;;;5067664;28;900;-68
2023/05/11 06:48:14;;;;;;;;;;;;;;;;;;5067787;28;1186;-68
2023/05/11 06:50:39;;;;;;;;;;;;;;;;;;5051812;28;944;-68
2023/05/11 06:53:05;;;;;;;;;;;;;;;;;;5052157;28;927;-67
2023/05/11 06:55:30;;;;;;;;;;;;;;;;;;5052142;28;1910;-67
2023/05/11 06:57:56;;;;;;;;;;;;;;;;;;5050836;28;941;-67
2023/05/11 07:00:21;;;;;;;;;;;;;;;;;;5066106;28;829;-66
2023/05/11 07:02:46;;;;;;;;;;;;;;;;;;5066100;28;908;-67
2023/05/11 07:05:12;;;;;;;;;;;;;;;;;;5065877;28;1070;-69
2023/05/11 07:07:37;;;;;;;;;;;;;;;;;;5050802;28;825;-69
2023/05/11 07:10:03;;;;;;;;;;;;;;;;;;5050475;28;995;-69
2023/05/11 07:12:28;;;;;;;;;;;;;;;;;;5051523;28;1200;-69
2023/05/11 07:14:54;;;;;;;;;;;;;;;;;;5070954;28;1332;-67
2023/05/11 07:17:19;;;;;;;;;;;;;;;;;;5055757;28;1952;-67
2023/05/11 07:19:44;;;;;;;;;;;;;;;;;;5055878;28;1221;-67
2023/05/11 07:22:09;;;;;;;;;;;;;;;;;;5055901;28;911;-68
2023/05/11 07:24:36;;;;;;;;;;;;;;;;;;5055963;28;944;-67
2023/05/11 07:27:01;;;;;;;;;;;;;;;;;;5088342;28;1245;-67
2023/05/11 07:29:27;;;;;;;;;;;;;;;;;;5071633;28;801;-67
2023/05/11 07:31:52;;;;;;;;;;;;;;;;;;5071708;28;951;-67
2023/05/11 07:34:17;;;;;;;;;;;;;;;;;;5088139;28;876;-67
2023/05/11 07:36:42;;;;;;;;;;;;;;;;;;5069684;28;1913;-67
2023/05/11 07:39:09;;;;;;;;;;;;;;;;;;5070335;28;817;-67
2023/05/11 07:41:34;;;;;;;;;;;;;;;;;;5070189;28;876;-67
2023/05/11 07:44:00;;;;;;;;;;;;;;;;;;5070418;28;888;-67
2023/05/11 07:46:25;;;;;;;;;;;;;;;;;;5055296;28;880;-67
2023/05/11 07:48:51;;;;;;;;;;;;;;;;;;5054901;28;986;-67
2023/05/11 07:51:16;;;;;;;;;;;;;;;;;;5055096;28;892;-68
2023/05/11 07:53:42;;;;;;;;;;;;;;;;;;5055358;28;849;-67
2023/05/11 07:56:07;;;;;;;;;;;;;;;;;;5053850;28;1918;-67
2023/05/11 07:58:32;;;;;;;;;;;;;;;;;;5054920;28;883;-67
2023/05/11 08:00:58;;;;;;;;;;;;;;;;;;5055239;28;896;-68
2023/05/11 08:03:23;;;;;;;;;;;;;;;;;;5055005;28;923;-67
2023/05/11 08:05:48;;;;;;;;;;;;;;;;;;5055070;28;837;-67
2023/05/11 08:08:14;;;;;;;;;;;;;;;;;;5055129;28;841;-68
2023/05/11 08:10:40;;;;;;;;;;;;;;;;;;5055410;28;754;-67
2023/05/11 08:13:05;;;;;;;;;;;;;;;;;;5054741;28;1007;-67
2023/05/11 08:15:30;;;;;;;;;;;;;;;;;;5069234;28;1914;-67
2023/05/11 08:17:55;;;;;;;;;;;;;;;;;;5070549;28;1193;-67
2023/05/11 08:20:22;;;;;;;;;;;;;;;;;;5069574;28;1355;-63
2023/05/11 08:22:47;;;;;;;;;;;;;;;;;;5069564;28;1468;-63
2023/05/11 08:25:13;;;;;;;;;;;;;;;;;;5070473;28;1339;-63
2023/05/11 08:27:38;;;;;;;;;;;;;;;;;;5054552;28;770;-64
2023/05/11 08:30:04;;;;;;;;;;;;;;;;;;5054388;28;892;-64
2023/05/11 08:32:29;;;;;;;;;;;;;;;;;;5069422;28;1230;-64
2023/05/11 08:34:54;;;;;;;;;;;;;;;;;;5069531;28;900;-63
2023/05/11 08:37:19;;;;;;;;;;;;;;;;;;5053998;28;1954;-63
2023/05/11 08:39:45;;;;;;;;;;;;;;;;;;5054425;28;852;-64
2023/05/11 08:42:13;;;;;;;;;;;;;;;;;;5086689;28;1375;-64
2023/05/11 08:44:41;;;;;;;;;;;;;;;;;;5053962;28;987;-64
2023/05/11 08:47:06;;;;;;;;;;;;;;;;;;5053887;28;884;-64
2023/05/11 08:49:33;;;;;;;;;;;;;;;;;;5052147;28;1132;-64
2023/05/11 08:52:02;;;;;;;;;;;;;;;;;;5069017;28;938;-63
2023/05/11 08:54:27;;;;;;;;;;;;;;;;;;5085781;28;1185;-64
2023/05/11 08:56:53;;;;;;;;;;;;;;;;;;5054179;28;1918;-63
2023/05/11 08:59:19;;;;;;;;;;;;;;;;;;5054354;28;685;-62
2023/05/11 09:01:44;;;;;;;;;;;;;;;;;;5053907;28;901;-63
2023/05/11 09:04:10;;;;;;;;;;;;;;;;;;5053867;28;829;-63
2023/05/11 09:06:37;;;;;;;;;;;;;;;;;;5053434;28;1007;-63
2023/05/11 09:09:02;;;;;;;;;;;;;;;;;;5069489;28;1386;-63
2023/05/11 09:11:28;;;;;;;;;;;;;;;;;;5053562;28;861;-63
2023/05/11 09:13:53;;;;;;;;;;;;;;;;;;5069358;28;896;-64
2023/05/11 09:16:19;;;;;;;;;;;;;;;;;;5053916;28;1959;-64
2023/05/11 09:18:50;;;;;;;;;;;;;;;;;;5053651;28;853;-64
2023/05/11 09:21:16;;;;;;;;;;;;;;;;;;5053443;28;1074;-63
2023/05/11 09:23:41;;;;;;;;;;;;;;;;;;5052791;28;845;-64
2023/05/11 09:26:16;;;;;;;;;;;;;;;;;;5053692;28;872;-64
2023/05/11 09:28:52;;;;;;;;;;;;;;;;;;5053158;28;915;-63
2023/05/11 09:31:36;;;;;;;;;;;;;;;;;;5053265;28;821;-64
2023/05/11 09:34:11;;;;;;;;;;;;;;;;;;5085221;28;1444;-63
2023/05/11 09:36:37;;;;;;;;;;;;;;;;;;5084848;28;1966;-68
2023/05/11 09:39:02;;;;;;;;;;;;;;;;;;5053046;28;853;-67
2023/05/11 09:41:28;;;;;;;;;;;;;;;;;;5067637;28;848;-67
2023/05/11 09:44:02;;;;;;;;;;;;;;;;;;5052748;28;959;-67
2023/05/11 09:46:28;;;;;;;;;;;;;;;;;;5052548;28;911;-67
2023/05/11 09:48:59;;;;;;;;;;;;;;;;;;5067155;28;829;-67
2023/05/11 09:51:29;;;;;;;;;;;;;;;;;;5052824;28;852;-68
2023/05/11 09:53:55;;;;;;;;;;;;;;;;;;5068142;28;1190;-67
2023/05/11 09:56:20;;;;;;;;;;;;;;;;;;5052517;28;1875;-67
2023/05/11 09:58:47;;;;;;;;;;;;;;;;;;5068040;28;832;-67
2023/05/11 10:01:14;;;;;;;;;;;;;;;;;;5052933;28;860;-67
2023/05/11 10:03:46;;;;;;;;;;;;;;;;;;5051206;28;789;-67
2023/05/11 10:06:12;;;;;;;;;;;;;;;;;;5084636;28;1305;-67
2023/05/11 10:08:37;;;;;;;;;;;;;;;;;;5067871;28;1242;-67
2023/05/11 10:11:03;;;;;;;;;;;;;;;;;;5068507;28;860;-67
2023/05/11 10:13:29;;;;;;;;;;;;;;;;;;5052863;28;962;-67
2023/05/11 10:15:57;;;;;;;;;;;;;;;;;;5052249;28;1898;-68
2023/05/11 10:18:22;;;;;;;;;;;;;;;;;;5052237;28;1251;-67
2023/05/11 10:20:48;;;;;;;;;;;;;;;;;;5053474;28;1113;-68
2023/05/11 10:23:16;;;;;;;;;;;;;;;;;;5069200;28;1319;-67
2023/05/11 10:25:41;;;;;;;;;;;;;;;;;;5052890;28;911;-68
2023/05/11 10:28:07;;;;;;;;;;;;;;;;;;5051440;28;928;-68
2023/05/11 10:30:33;;;;;;;;;;;;;;;;;;5052721;28;1147;-67
2023/05/11 10:33:02;;;;;;;;;;;;;;;;;;5053611;28;932;-67
2023/05/11 10:35:27;;;;;;;;;;;;;;;;;;5085551;28;2021;-67
2023/05/11 10:37:53;;;;;;;;;;;;;;;;;;5072634;28;880;-67
2023/05/11 10:40:19;;;;;;;;;;;;;;;;;;5057116;28;833;-67
2023/05/11 10:42:47;;;;;;;;;;;;;;;;;;5054993;28;987;-68
2023/05/11 10:45:32;;;;;;;;;;;;;;;;;;5088494;28;1297;-68
2023/05/11 10:48:13;;;;;;;;;;;;;;;;;;5058850;28;908;-68
2023/05/11 10:50:38;;;;;;;;;;;;;;;;;;5058827;28;833;-68
2023/05/11 10:53:32;;;;;;;;;;;;;;;;;;5058804;28;1019;-68
2023/05/11 10:55:58;;;;;;;;;;;;;;;;;;5062222;28;1945;-68
2023/05/11 10:58:52;;;;;;;;;;;;;;;;;;5058995;28;995;-68
2023/05/11 11:01:57;;;;;;;;;;;;;;;;;;5062724;28;1106;-68
2023/05/11 11:04:22;;;;;;;;;;;;;;;;;;5067747;28;1391;-68
2023/05/11 11:07:02;;;;;;;;;;;;;;;;;;5073439;28;864;-68
2023/05/11 11:09:47;;;;;;;;;;;;;;;;;;5058100;28;939;-68
2023/05/11 11:12:13;;;;;;;;;;;;;;;;;;5056757;28;979;-68
2023/05/11 11:14:57;;;;;;;;;;;;;;;;;;5088002;28;1190;-68
2023/05/11 11:17:25;;;;;;;;;;;;;;;;;;5071294;28;1958;-68
2023/05/11 11:19:51;;;;;;;;;;;;;;;;;;5087503;28;1226;-68
2023/05/11 11:22:37;;;;;;;;;;;;;;;;;;5055347;28;1192;-68
2023/05/11 11:25:05;;;;;;;;;;;;;;;;;;5055519;28;845;-68
2023/05/11 11:27:39;;;;;;;;;;;;;;;;;;5055244;28;920;-68
2023/05/11 11:30:17;;;;;;;;;;;;;;;;;;5055757;28;908;-68
2023/05/11 11:32:42;;;;;;;;;;;;;;;;;;5055571;28;1031;-68
2023/05/11 11:35:26;;;;;;;;;;;;;;;;;;5070798;28;1185;-68
2023/05/11 11:37:59;;;;;;;;;;;;;;;;;;5085170;28;1175;-68
2023/05/11 11:40:34;;;;;;;;;;;;;;;;;;5035846;28;873;-68
2023/05/11 11:43:08;;;;;;;;;;;;;;;;;;5035614;28;1077;-68
2023/05/11 11:45:35;;;;;;;;;;;;;;;;;;5067649;28;1095;-69
2023/05/11 11:48:14;;;;;;;;;;;;;;;;;;5035983;28;1053;-69
2023/05/11 11:50:43;;;;;;;;;;;;;;;;;;5035946;28;897;-68
2023/05/11 11:53:09;;;;;;;;;;;;;;;;;;5035516;28;861;-68
2023/05/11 11:55:48;;;;;;;;;;;;;;;;;;5035168;28;1965;-68
2023/05/11 11:58:32;;;;;;;;;;;;;;;;;;5035251;28;833;-69
2023/05/11 12:00:57;;;;;;;;;;;;;;;;;;5067676;28;1369;-68
2023/05/11 12:03:23;;;;;;;;;;;;;;;;;;5035966;28;892;-68
2023/05/11 12:05:52;;;;;;;;;;;;;;;;;;5050139;28;910;-68
2023/05/11 12:08:18;;;;;;;;;;;;;;;;;;5067429;28;1289;-68
2023/05/11 12:10:45;;;;;;;;;;;;;;;;;;5035174;28;908;-68
2023/05/11 12:13:11;;;;;;;;;;;;;;;;;;5050600;28;1346;-68
2023/05/11 12:15:36;;;;;;;;;;;;;;;;;;5050123;28;1967;-69
2023/05/11 12:18:02;;;;;;;;;;;;;;;;;;5035145;28;947;-68
2023/05/11 12:20:27;;;;;;;;;;;;;;;;;;5050451;28;1320;-68
2023/05/11 12:22:53;;;;;;;;;;;;;;;;;;5035421;28;908;-67
2023/05/11 12:25:19;;;;;;;;;;;;;;;;;;5050536;28;1193;-67
2023/05/11 12:27:47;;;;;;;;;;;;;;;;;;5035057;28;821;-67
2023/05/11 12:30:38;;;;;;;;;;;;;;;;;;5034901;28;856;-67
2023/05/11 12:33:06;;;;;;;;;;;;;;;;;;5049299;28;1189;-68
2023/05/11 12:35:33;;;;;;;;;;;;;;;;;;5034012;28;1898;-68
2023/05/11 12:37:59;;;;;;;;;;;;;;;;;;5034009;28;880;-67
2023/05/11 12:40:25;;;;;;;;;;;;;;;;;;5034884;28;789;-68
2023/05/11 12:42:51;;;;;;;;;;;;;;;;;;5065533;28;1229;-69
2023/05/11 12:45:18;;;;;;;;;;;;;;;;;;5034080;28;821;-69
2023/05/11 12:47:43;;;;;;;;;;;;;;;;;;5034174;28;857;-69
2023/05/11 12:50:09;;;;;;;;;;;;;;;;;;5034070;28;888;-68
2023/05/11 12:52:34;;;;;;;;;;;;;;;;;;5033766;28;913;-69
2023/05/11 12:55:00;;;;;;;;;;;;;;;;;;5048100;28;857;-68
2023/05/11 12:57:26;;;;;;;;;;;;;;;;;;5033216;28;1909;-68
2023/05/11 13:00:04;;;;;;;;;;;;;;;;;;5033149;28;817;-68
2023/05/11 13:02:30;;;;;;;;;;;;;;;;;;5033751;28;810;-68
2023/05/11 13:04:55;;;;;;;;;;;;;;;;;;5033432;28;869;-68
2023/05/11 13:07:25;;;;;;;;;;;;;;;;;;5065681;28;1352;-68
2023/05/11 13:09:58;;;;;;;;;;;;;;;;;;5032428;28;853;-69
2023/05/11 13:12:24;;;;;;;;;;;;;;;;;;5034405;28;798;-69
2023/05/11 13:15:02;;;;;;;;;;;;;;;;;;5065567;28;1312;-68
2023/05/11 13:17:36;;;;;;;;;;;;;;;;;;5065954;28;1906;-68
2023/05/11 13:20:20;;;;;;;;;;;;;;;;;;5033758;28;1319;-69
2023/05/11 13:22:46;;;;;;;;;;;;;;;;;;5033392;28;868;-69
2023/05/11 13:25:12;;;;;;;;;;;;;;;;;;5034585;28;1007;-69
2023/05/11 13:27:38;;;;;;;;;;;;;;;;;;5033754;28;974;-69
2023/05/11 13:30:04;;;;;;;;;;;;;;;;;;5048873;28;1361;-69
2023/05/11 13:32:29;;;;;;;;;;;;;;;;;;5034235;28;1107;-68
2023/05/11 13:34:54;;;;;;;;;;;;;;;;;;5049197;28;1114;-68
2023/05/11 13:37:20;;;;;;;;;;;;;;;;;;5033713;28;1949;-69
2023/05/11 13:39:45;;;;;;;;;;;;;;;;;;5065642;28;1178;-68
2023/05/11 13:42:10;;;;;;;;;;;;;;;;;;5066285;28;1185;-69
2023/05/11 13:44:36;;;;;;;;;;;;;;;;;;5065002;28;1332;-69
2023/05/11 13:47:01;;;;;;;;;;;;;;;;;;5032090;28;1298;-69
2023/05/11 13:49:27;;;;;;;;;;;;;;;;;;5033056;28;994;-69
2023/05/11 13:51:54;;;;;;;;;;;;;;;;;;5032825;28;841;-69
2023/05/11 13:54:20;;;;;;;;;;;;;;;;;;5048204;28;1316;-69
2023/05/11 13:56:45;;;;;;;;;;;;;;;;;;5032746;28;1965;-69
2023/05/11 13:59:11;;;;;;;;;;;;;;;;;;5033233;28;902;-69
2023/05/11 14:01:37;;;;;;;;;;;;;;;;;;5047768;28;1381;-69
2023/05/11 14:04:03;;;;;;;;;;;;;;;;;;5032670;28;848;-69
2023/05/11 14:06:28;;;;;;;;;;;;;;;;;;5048273;28;837;-70
2023/05/11 14:08:53;;;;;;;;;;;;;;;;;;5032345;28;880;-69
2023/05/11 14:11:19;;;;;;;;;;;;;;;;;;5048023;28;1170;-69
2023/05/11 14:13:45;;;;;;;;;;;;;;;;;;5047401;28;888;-69
2023/05/11 14:16:10;;;;;;;;;;;;;;;;;;5064619;28;1967;-69
2023/05/11 14:18:36;;;;;;;;;;;;;;;;;;5048111;28;829;-69
2023/05/11 14:21:01;;;;;;;;;;;;;;;;;;5063833;28;1266;-69
2023/05/11 14:23:26;;;;;;;;;;;;;;;;;;5047900;28;1246;-69
2023/05/11 14:25:52;;;;;;;;;;;;;;;;;;5047386;28;834;-69
2023/05/11 14:28:17;;;;;;;;;;;;;;;;;;5047967;28;1265;-69
2023/05/11 14:30:42;;;;;;;;;;;;;;;;;;5032987;28;863;-69
2023/05/11 14:33:07;;;;;;;;;;;;;;;;;;5032820;28;841;-69
2023/05/11 14:35:33;;;;;;;;;;;;;;;;;;5047856;28;1977;-68
2023/05/11 14:37:58;;;;;;;;;;;;;;;;;;5047451;28;1331;-69
2023/05/11 14:40:23;;;;;;;;;;;;;;;;;;5032292;28;1003;-69
2023/05/11 14:42:48;;;;;;;;;;;;;;;;;;5050336;28;908;-68
2023/05/11 14:45:14;;;;;;;;;;;;;;;;;;5037211;28;1102;-69
2023/05/11 14:47:39;;;;;;;;;;;;;;;;;;5033394;28;912;-69
2023/05/11 14:50:05;;;;;;;;;;;;;;;;;;5047788;28;908;-69
2023/05/11 14:52:30;;;;;;;;;;;;;;;;;;5032546;28;924;-68
2023/05/11 14:54:55;;;;;;;;;;;;;;;;;;5031737;28;1063;-69
2023/05/11 14:57:21;;;;;;;;;;;;;;;;;;5032507;28;1902;-69
2023/05/11 14:59:46;;;;;;;;;;;;;;;;;;5032283;28;916;-69
2023/05/11 15:02:11;;;;;;;;;;;;;;;;;;5047648;28;1330;-69
2023/05/11 15:04:36;;;;;;;;;;;;;;;;;;5047681;28;881;-69
2023/05/11 15:07:02;;;;;;;;;;;;;;;;;;5064665;28;1373;-69
2023/05/11 15:09:27;;;;;;;;;;;;;;;;;;5048533;28;1170;-69
2023/05/11 15:11:52;;;;;;;;;;;;;;;;;;5047635;28;905;-69
2023/05/11 15:14:17;;;;;;;;;;;;;;;;;;5033164;28;935;-69
2023/05/11 15:16:43;;;;;;;;;;;;;;;;;;5064712;28;1960;-68
2023/05/11 15:19:08;;;;;;;;;;;;;;;;;;5032816;28;982;-69
2023/05/11 15:21:34;;;;;;;;;;;;;;;;;;5032161;28;1224;-69
2023/05/11 15:23:59;;;;;;;;;;;;;;;;;;5047536;28;932;-69
2023/05/11 15:26:25;;;;;;;;;;;;;;;;;;5064422;28;1479;-69
2023/05/11 15:28:50;;;;;;;;;;;;;;;;;;5031733;28;1247;-69
2023/05/11 15:31:15;;;;;;;;;;;;;;;;;;5060714;28;1204;-69
2023/05/11 15:33:41;;;;;;;;;;;;;;;;;;5049722;28;1223;-69
2023/05/11 15:36:10;;;;;;;;;;;;;;;;;;5070642;28;1976;-69
2023/05/11 15:38:36;;;;;;;;;;;;;;;;;;5055193;28;1228;-69
2023/05/11 15:41:02;;;;;;;;;;;;;;;;;;5086509;28;1187;-69
2023/05/11 15:43:27;;;;;;;;;;;;;;;;;;5055189;28;911;-68
2023/05/11 15:45:53;;;;;;;;;;;;;;;;;;5070030;28;1240;-68
2023/05/11 15:48:18;;;;;;;;;;;;;;;;;;5054652;28;1136;-68
2023/05/11 15:50:44;;;;;;;;;;;;;;;;;;5070602;28;1171;-68
2023/05/11 15:53:09;;;;;;;;;;;;;;;;;;5040389;28;1187;-68
2023/05/11 15:55:35;;;;;;;;;;;;;;;;;;5050740;28;1894;-68
2023/05/11 15:58:05;;;;;;;;;;;;;;;;;;5066919;28;1361;-68
2023/05/11 16:00:30;;;;;;;;;;;;;;;;;;5050342;28;1359;-67
2023/05/11 16:02:55;;;;;;;;;;;;;;;;;;5049907;28;1253;-69
2023/05/11 16:05:20;;;;;;;;;;;;;;;;;;5050857;28;1174;-70
2023/05/11 16:07:46;;;;;;;;;;;;;;;;;;5050769;28;810;-69
2023/05/11 16:10:11;;;;;;;;;;;;;;;;;;5067361;28;1332;-70
2023/05/11 16:12:36;;;;;;;;;;;;;;;;;;5050182;28;1056;-69
2023/05/11 16:15:01;;;;;;;;;;;;;;;;;;5035128;28;1023;-69
2023/05/11 16:17:27;;;;;;;;;;;;;;;;;;5050118;28;1901;-69
2023/05/11 16:19:52;;;;;;;;;;;;;;;;;;5034674;28;1058;-68
2023/05/11 16:22:17;;;;;;;;;;;;;;;;;;5049795;28;1118;-69
2023/05/11 16:24:43;;;;;;;;;;;;;;;;;;5034932;28;968;-69
2023/05/11 16:27:08;;;;;;;;;;;;;;;;;;5034991;28;880;-69
2023/05/11 16:29:34;;;;;;;;;;;;;;;;;;5035018;28;865;-69
2023/05/11 16:32:00;;;;;;;;;;;;;;;;;;5034593;28;821;-69
2023/05/11 16:34:26;;;;;;;;;;;;;;;;;;5067174;28;1332;-69
2023/05/11 16:36:51;;;;;;;;;;;;;;;;;;5050226;28;1979;-68
2023/05/11 16:39:16;;;;;;;;;;;;;;;;;;5066799;28;1225;-69
2023/05/11 16:41:42;;;;;;;;;;;;;;;;;;5066860;28;1337;-68
2023/05/11 16:44:07;;;;;;;;;;;;;;;;;;5048871;28;1344;-68
2023/05/11 16:46:33;;;;;;;;;;;;;;;;;;5049425;28;1011;-69
2023/05/11 16:48:58;;;;;;;;;;;;;;;;;;5034417;28;979;-69
2023/05/11 16:51:23;;;;;;;;;;;;;;;;;;5066592;28;1308;-69
2023/05/11 16:53:48;;;;;;;;;;;;;;;;;;5034151;28;900;-68
2023/05/11 16:56:14;;;;;;;;;;;;;;;;;;5034053;28;1902;-68
2023/05/11 16:58:40;;;;;;;;;;;;;;;;;;5049584;28;1293;-69
2023/05/11 17:01:05;;;;;;;;;;;;;;;;;;5034211;28;888;-69
2023/05/11 17:03:33;;;;;;;;;;;;;;;;;;5049582;28;1329;-69
2023/05/11 17:05:59;;;;;;;;;;;;;;;;;;5066053;28;1206;-69
2023/05/11 17:08:25;;;;;;;;;;;;;;;;;;5065759;28;1198;-69
2023/05/11 17:10:50;;;;;;;;;;;;;;;;;;5034224;28;820;-68